sensor_id;sensor_type;location;lat;lon;timestamp;pressure;altitude;pressure_sealevel;temperature;humidity
77110;BME280;66062;52.464;16.922;2023-08-08T00:01:12;99811.44;;;14.14;73.37
77110;BME280;66062;52.464;16.922;2023-08-08T00:03:37;99812.44;;;14.13;74.01
77110;BME280;66062;52.464;16.922;2023-08-08T00:06:03;99819.38;;;14.08;74.48
77110;BME280;66062;52.464;16.922;2023-08-08T00:08:28;99830.09;;;14.08;74.20
77110;BME280;66062;52.464;16.922;2023-08-08T00:10:54;99822.44;;;14.05;74.38
77110;BME280;66062;52.464;16.922;2023-08-08T00:13:19;99826.13;;;14.04;74.18
77110;BME280;66062;52.464;16.922;2023-08-08T00:15:45;99829.47;;;14.06;74.05
77110;BME280;66062;52.464;16.922;2023-08-08T00:18:11;99823.91;;;14.07;74.40
77110;BME280;66062;52.464;16.922;2023-08-08T00:20:36;99825.75;;;14.07;74.65
77110;BME280;66062;52.464;16.922;2023-08-08T00:23:01;99843.22;;;14.03;75.08
77110;BME280;66062;52.464;16.922;2023-08-08T00:25:27;99850.63;;;14.01;75.41
77110;BME280;66062;52.464;16.922;2023-08-08T00:27:52;99847.69;;;14.10;74.90
77110;BME280;66062;52.464;16.922;2023-08-08T00:30:18;99843.81;;;14.13;75.34
77110;BME280;66062;52.464;16.922;2023-08-08T00:32:43;99860.13;;;14.11;75.86
77110;BME280;66062;52.464;16.922;2023-08-08T00:35:09;99843.47;;;14.16;75.55
77110;BME280;66062;52.464;16.922;2023-08-08T00:37:34;99848.81;;;14.16;76.05
77110;BME280;66062;52.464;16.922;2023-08-08T00:40:00;99838.56;;;14.20;76.29
77110;BME280;66062;52.464;16.922;2023-08-08T00:42:26;99842.63;;;14.16;76.61
77110;BME280;66062;52.464;16.922;2023-08-08T00:44:51;99837.34;;;14.22;76.60
77110;BME280;66062;52.464;16.922;2023-08-08T00:47:17;99834.97;;;14.27;76.01
77110;BME280;66062;52.464;16.922;2023-08-08T00:49:43;99843.66;;;14.29;75.74
77110;BME280;66062;52.464;16.922;2023-08-08T00:52:11;99840.97;;;14.29;75.62
77110;BME280;66062;52.464;16.922;2023-08-08T00:54:37;99841.44;;;14.33;75.77
77110;BME280;66062;52.464;16.922;2023-08-08T00:57:03;99841.25;;;14.34;75.55
77110;BME280;66062;52.464;16.922;2023-08-08T00:59:28;99836.22;;;14.39;75.77
77110;BME280;66062;52.464;16.922;2023-08-08T01:01:54;99835.59;;;14.37;75.73
77110;BME280;66062;52.464;16.922;2023-08-08T01:04:22;99834.81;;;14.43;75.26
77110;BME280;66062;52.464;16.922;2023-08-08T01:09:50;99841.22;;;14.42;75.22
77110;BME280;66062;52.464;16.922;2023-08-08T01:12:18;99832.69;;;14.39;75.73
77110;BME280;66062;52.464;16.922;2023-08-08T01:14:44;99832.91;;;14.37;75.83
77110;BME280;66062;52.464;16.922;2023-08-08T01:17:11;99838.53;;;14.42;75.63
77110;BME280;66062;52.464;16.922;2023-08-08T01:19:37;99832.13;;;14.43;75.69
77110;BME280;66062;52.464;16.922;2023-08-08T01:22:05;99832.78;;;14.45;76.01
77110;BME280;66062;52.464;16.922;2023-08-08T01:24:32;99820.75;;;14.41;76.28
77110;BME280;66062;52.464;16.922;2023-08-08T01:27:00;99822.78;;;14.39;76.63
77110;BME280;66062;52.464;16.922;2023-08-08T01:29:26;99827.84;;;14.34;76.10
77110;BME280;66062;52.464;16.922;2023-08-08T01:31:53;99830.91;;;14.31;76.56
77110;BME280;66062;52.464;16.922;2023-08-08T01:34:18;99820.06;;;14.25;76.81
77110;BME280;66062;52.464;16.922;2023-08-08T01:37:00;99824.41;;;14.26;76.80
77110;BME280;66062;52.464;16.922;2023-08-08T01:39:30;99826.25;;;14.25;77.07
77110;BME280;66062;52.464;16.922;2023-08-08T01:41:56;99823.28;;;14.20;76.75
77110;BME280;66062;52.464;16.922;2023-08-08T01:44:24;99835.31;;;14.24;76.42
77110;BME280;66062;52.464;16.922;2023-08-08T01:46:51;99828.66;;;14.20;76.58
77110;BME280;66062;52.464;16.922;2023-08-08T01:49:17;99824.38;;;14.11;76.77
77110;BME280;66062;52.464;16.922;2023-08-08T01:51:42;99826.53;;;14.16;76.76
77110;BME280;66062;52.464;16.922;2023-08-08T01:54:08;99824.94;;;14.06;77.14
77110;BME280;66062;52.464;16.922;2023-08-08T01:56:33;99833.72;;;14.00;77.36
77110;BME280;66062;52.464;16.922;2023-08-08T01:58:59;99828.59;;;13.91;77.95
77110;BME280;66062;52.464;16.922;2023-08-08T02:01:24;99831.06;;;13.92;77.76
77110;BME280;66062;52.464;16.922;2023-08-08T02:03:49;99823.84;;;13.93;77.89
77110;BME280;66062;52.464;16.922;2023-08-08T02:06:15;99835.13;;;13.88;78.04
77110;BME280;66062;52.464;16.922;2023-08-08T02:08:40;99831.56;;;13.96;77.70
77110;BME280;66062;52.464;16.922;2023-08-08T02:11:06;99838.28;;;13.92;78.33
77110;BME280;66062;52.464;16.922;2023-08-08T02:13:31;99836.94;;;13.96;77.88
77110;BME280;66062;52.464;16.922;2023-08-08T02:15:57;99842.00;;;13.91;78.21
77110;BME280;66062;52.464;16.922;2023-08-08T02:18:22;99845.88;;;13.88;78.49
77110;BME280;66062;52.464;16.922;2023-08-08T02:20:47;99840.50;;;13.88;78.79
77110;BME280;66062;52.464;16.922;2023-08-08T02:23:13;99844.19;;;13.87;79.36
77110;BME280;66062;52.464;16.922;2023-08-08T02:25:38;99836.81;;;13.89;79.01
77110;BME280;66062;52.464;16.922;2023-08-08T02:28:04;99844.09;;;13.81;79.27
77110;BME280;66062;52.464;16.922;2023-08-08T02:30:30;99845.75;;;13.82;79.74
77110;BME280;66062;52.464;16.922;2023-08-08T02:32:55;99837.34;;;13.85;79.55
77110;BME280;66062;52.464;16.922;2023-08-08T02:35:20;99838.81;;;13.87;78.94
77110;BME280;66062;52.464;16.922;2023-08-08T02:37:46;99839.66;;;13.88;79.75
77110;BME280;66062;52.464;16.922;2023-08-08T02:40:11;99838.19;;;13.85;80.12
77110;BME280;66062;52.464;16.922;2023-08-08T02:42:37;99838.81;;;13.87;80.19
77110;BME280;66062;52.464;16.922;2023-08-08T02:45:03;99841.75;;;13.78;80.37
77110;BME280;66062;52.464;16.922;2023-08-08T02:47:28;99849.41;;;13.66;80.90
77110;BME280;66062;52.464;16.922;2023-08-08T02:49:54;99853.63;;;13.60;81.81
77110;BME280;66062;52.464;16.922;2023-08-08T02:52:19;99852.13;;;13.58;82.26
77110;BME280;66062;52.464;16.922;2023-08-08T02:54:45;99856.72;;;13.49;82.68
77110;BME280;66062;52.464;16.922;2023-08-08T02:57:10;99865.81;;;13.40;83.38
77110;BME280;66062;52.464;16.922;2023-08-08T02:59:37;99862.78;;;13.43;83.41
77110;BME280;66062;52.464;16.922;2023-08-08T03:02:03;99861.00;;;13.36;83.77
77110;BME280;66062;52.464;16.922;2023-08-08T03:04:29;99859.84;;;13.30;84.28
77110;BME280;66062;52.464;16.922;2023-08-08T03:06:55;99863.47;;;13.37;84.28
77110;BME280;66062;52.464;16.922;2023-08-08T03:09:21;99861.00;;;13.27;85.10
77110;BME280;66062;52.464;16.922;2023-08-08T03:11:47;99874.88;;;13.31;84.80
77110;BME280;66062;52.464;16.922;2023-08-08T03:14:12;99873.94;;;13.24;85.05
77110;BME280;66062;52.464;16.922;2023-08-08T03:16:38;99875.94;;;13.22;85.57
77110;BME280;66062;52.464;16.922;2023-08-08T03:19:03;99873.47;;;13.20;85.60
77110;BME280;66062;52.464;16.922;2023-08-08T03:21:29;99878.84;;;13.12;86.38
77110;BME280;66062;52.464;16.922;2023-08-08T03:23:54;99882.50;;;13.19;86.25
77110;BME280;66062;52.464;16.922;2023-08-08T03:26:20;99880.00;;;13.10;86.55
77110;BME280;66062;52.464;16.922;2023-08-08T03:28:45;99877.16;;;13.11;86.64
77110;BME280;66062;52.464;16.922;2023-08-08T03:31:17;99876.69;;;13.00;87.38
77110;BME280;66062;52.464;16.922;2023-08-08T03:33:43;99880.38;;;12.99;87.53
77110;BME280;66062;52.464;16.922;2023-08-08T03:36:09;99887.41;;;13.00;87.34
77110;BME280;66062;52.464;16.922;2023-08-08T03:38:34;99892.56;;;13.01;87.57
77110;BME280;66062;52.464;16.922;2023-08-08T03:41:01;99884.22;;;13.04;87.37
77110;BME280;66062;52.464;16.922;2023-08-08T03:43:26;99887.75;;;12.97;87.40
77110;BME280;66062;52.464;16.922;2023-08-08T03:45:51;99890.25;;;12.98;88.01
77110;BME280;66062;52.464;16.922;2023-08-08T03:48:17;99895.09;;;13.03;87.24
77110;BME280;66062;52.464;16.922;2023-08-08T03:50:43;99891.41;;;13.12;86.81
77110;BME280;66062;52.464;16.922;2023-08-08T03:53:08;99892.72;;;13.16;86.65
77110;BME280;66062;52.464;16.922;2023-08-08T03:55:34;99894.75;;;13.14;87.05
77110;BME280;66062;52.464;16.922;2023-08-08T03:57:59;99895.41;;;13.08;87.12
77110;BME280;66062;52.464;16.922;2023-08-08T04:00:25;99896.44;;;13.15;86.79
77110;BME280;66062;52.464;16.922;2023-08-08T04:02:50;99898.94;;;13.08;86.94
77110;BME280;66062;52.464;16.922;2023-08-08T04:05:15;99904.63;;;13.13;86.32
77110;BME280;66062;52.464;16.922;2023-08-08T04:07:41;99906.25;;;13.22;86.25
77110;BME280;66062;52.464;16.922;2023-08-08T04:10:07;99904.91;;;13.26;85.84
77110;BME280;66062;52.464;16.922;2023-08-08T04:12:32;99903.94;;;13.19;85.23
77110;BME280;66062;52.464;16.922;2023-08-08T04:14:58;99904.78;;;13.20;85.10
77110;BME280;66062;52.464;16.922;2023-08-08T04:17:24;99908.28;;;13.20;85.26
77110;BME280;66062;52.464;16.922;2023-08-08T04:19:49;99912.94;;;13.26;84.57
77110;BME280;66062;52.464;16.922;2023-08-08T04:22:16;99911.59;;;13.31;84.23
77110;BME280;66062;52.464;16.922;2023-08-08T04:24:41;99914.09;;;13.32;84.17
77110;BME280;66062;52.464;16.922;2023-08-08T04:27:07;99917.38;;;13.42;83.49
77110;BME280;66062;52.464;16.922;2023-08-08T04:29:32;99909.00;;;13.45;83.36
77110;BME280;66062;52.464;16.922;2023-08-08T04:31:57;99913.41;;;13.38;82.79
77110;BME280;66062;52.464;16.922;2023-08-08T04:34:23;99924.13;;;13.38;82.86
77110;BME280;66062;52.464;16.922;2023-08-08T04:36:48;99926.75;;;13.46;82.53
77110;BME280;66062;52.464;16.922;2023-08-08T04:39:13;99926.72;;;13.54;81.76
77110;BME280;66062;52.464;16.922;2023-08-08T04:41:39;99927.88;;;13.60;80.90
77110;BME280;66062;52.464;16.922;2023-08-08T04:44:04;99936.53;;;13.70;80.94
77110;BME280;66062;52.464;16.922;2023-08-08T04:46:30;99931.94;;;13.79;80.28
77110;BME280;66062;52.464;16.922;2023-08-08T04:48:55;99934.63;;;13.79;79.45
77110;BME280;66062;52.464;16.922;2023-08-08T04:51:21;99931.56;;;13.82;78.90
77110;BME280;66062;52.464;16.922;2023-08-08T04:53:46;99932.72;;;13.87;77.93
77110;BME280;66062;52.464;16.922;2023-08-08T04:56:11;99935.16;;;13.97;77.36
77110;BME280;66062;52.464;16.922;2023-08-08T04:58:37;99942.19;;;13.98;77.30
77110;BME280;66062;52.464;16.922;2023-08-08T05:01:03;99940.53;;;13.97;76.29
77110;BME280;66062;52.464;16.922;2023-08-08T05:03:28;99942.41;;;13.96;76.02
77110;BME280;66062;52.464;16.922;2023-08-08T05:05:53;99935.81;;;13.99;75.47
77110;BME280;66062;52.464;16.922;2023-08-08T05:08:20;99942.34;;;14.04;74.85
77110;BME280;66062;52.464;16.922;2023-08-08T05:10:45;99944.84;;;14.06;74.44
77110;BME280;66062;52.464;16.922;2023-08-08T05:13:11;99946.03;;;14.03;74.21
77110;BME280;66062;52.464;16.922;2023-08-08T05:15:37;99940.16;;;14.23;73.54
77110;BME280;66062;52.464;16.922;2023-08-08T05:18:02;99949.34;;;14.36;73.16
77110;BME280;66062;52.464;16.922;2023-08-08T05:20:28;99947.28;;;14.38;72.14
77110;BME280;66062;52.464;16.922;2023-08-08T05:22:53;99938.53;;;14.44;71.43
77110;BME280;66062;52.464;16.922;2023-08-08T05:25:19;99938.53;;;14.44;70.85
77110;BME280;66062;52.464;16.922;2023-08-08T05:27:44;99945.69;;;14.52;71.10
77110;BME280;66062;52.464;16.922;2023-08-08T05:30:10;99938.75;;;14.58;69.91
77110;BME280;66062;52.464;16.922;2023-08-08T05:32:35;99949.50;;;14.58;70.21
77110;BME280;66062;52.464;16.922;2023-08-08T05:35:01;99951.44;;;14.64;70.12
77110;BME280;66062;52.464;16.922;2023-08-08T05:37:29;99952.00;;;14.74;70.14
77110;BME280;66062;52.464;16.922;2023-08-08T05:39:54;99954.13;;;14.64;69.80
77110;BME280;66062;52.464;16.922;2023-08-08T05:42:20;99954.50;;;14.61;70.23
77110;BME280;66062;52.464;16.922;2023-08-08T05:44:45;99960.69;;;14.61;69.65
77110;BME280;66062;52.464;16.922;2023-08-08T05:47:11;99960.44;;;14.71;69.42
77110;BME280;66062;52.464;16.922;2023-08-08T05:49:38;99962.47;;;14.69;69.21
77110;BME280;66062;52.464;16.922;2023-08-08T05:52:04;99957.59;;;14.87;69.31
77110;BME280;66062;52.464;16.922;2023-08-08T05:54:30;99965.66;;;14.87;69.37
77110;BME280;66062;52.464;16.922;2023-08-08T05:56:55;99956.50;;;14.59;70.69
77110;BME280;66062;52.464;16.922;2023-08-08T05:59:21;99953.47;;;14.62;69.65
77110;BME280;66062;52.464;16.922;2023-08-08T06:01:46;99953.78;;;14.67;69.52
77110;BME280;66062;52.464;16.922;2023-08-08T06:04:13;99968.03;;;14.67;70.36
77110;BME280;66062;52.464;16.922;2023-08-08T06:06:39;99965.22;;;14.61;70.10
77110;BME280;66062;52.464;16.922;2023-08-08T06:09:04;99968.13;;;14.36;71.12
77110;BME280;66062;52.464;16.922;2023-08-08T06:11:30;99971.31;;;14.54;70.98
77110;BME280;66062;52.464;16.922;2023-08-08T06:13:55;99981.72;;;14.58;70.82
77110;BME280;66062;52.464;16.922;2023-08-08T06:16:21;99977.16;;;14.58;70.68
77110;BME280;66062;52.464;16.922;2023-08-08T06:18:47;99986.22;;;14.80;70.80
77110;BME280;66062;52.464;16.922;2023-08-08T06:21:12;100001.50;;;14.79;70.62
77110;BME280;66062;52.464;16.922;2023-08-08T06:23:38;99986.66;;;14.83;70.14
77110;BME280;66062;52.464;16.922;2023-08-08T06:26:04;99990.94;;;14.78;70.78
77110;BME280;66062;52.464;16.922;2023-08-08T06:28:29;99983.00;;;14.99;70.00
77110;BME280;66062;52.464;16.922;2023-08-08T06:30:57;99987.34;;;15.15;69.15
77110;BME280;66062;52.464;16.922;2023-08-08T06:33:23;99997.09;;;15.16;69.87
77110;BME280;66062;52.464;16.922;2023-08-08T06:35:49;99996.25;;;15.30;69.30
77110;BME280;66062;52.464;16.922;2023-08-08T06:38:14;99994.69;;;15.50;69.03
77110;BME280;66062;52.464;16.922;2023-08-08T06:40:39;100003.91;;;15.56;68.86
77110;BME280;66062;52.464;16.922;2023-08-08T06:43:05;100009.97;;;15.94;67.21
77110;BME280;66062;52.464;16.922;2023-08-08T06:45:30;100001.00;;;15.72;68.43
77110;BME280;66062;52.464;16.922;2023-08-08T06:47:56;100024.84;;;15.60;68.88
77110;BME280;66062;52.464;16.922;2023-08-08T06:50:22;100006.28;;;15.51;69.12
77110;BME280;66062;52.464;16.922;2023-08-08T06:52:49;100004.44;;;15.36;69.90
77110;BME280;66062;52.464;16.922;2023-08-08T06:55:15;100005.19;;;15.60;70.08
77110;BME280;66062;52.464;16.922;2023-08-08T06:57:41;100000.81;;;15.29;69.98
77110;BME280;66062;52.464;16.922;2023-08-08T07:00:07;100014.06;;;15.16;70.93
77110;BME280;66062;52.464;16.922;2023-08-08T07:02:34;99999.69;;;15.24;70.77
77110;BME280;66062;52.464;16.922;2023-08-08T07:04:59;100000.72;;;15.37;70.33
77110;BME280;66062;52.464;16.922;2023-08-08T07:07:25;99996.91;;;15.76;69.32
77110;BME280;66062;52.464;16.922;2023-08-08T07:09:50;100014.00;;;15.68;69.23
77110;BME280;66062;52.464;16.922;2023-08-08T07:12:16;100014.25;;;15.88;69.13
77110;BME280;66062;52.464;16.922;2023-08-08T07:14:41;100012.91;;;16.35;66.58
77110;BME280;66062;52.464;16.922;2023-08-08T07:17:07;99996.91;;;16.69;65.55
77110;BME280;66062;52.464;16.922;2023-08-08T07:19:32;99999.41;;;17.33;63.12
77110;BME280;66062;52.464;16.922;2023-08-08T07:21:57;100005.41;;;17.28;63.02
77110;BME280;66062;52.464;16.922;2023-08-08T07:24:23;100013.56;;;17.35;63.27
77110;BME280;66062;52.464;16.922;2023-08-08T07:26:53;100001.59;;;16.88;64.46
77110;BME280;66062;52.464;16.922;2023-08-08T07:29:19;100024.44;;;16.64;65.48
77110;BME280;66062;52.464;16.922;2023-08-08T07:31:44;100000.66;;;16.32;66.01
77110;BME280;66062;52.464;16.922;2023-08-08T07:34:10;100005.66;;;16.56;66.25
77110;BME280;66062;52.464;16.922;2023-08-08T07:36:35;100009.56;;;16.54;65.98
77110;BME280;66062;52.464;16.922;2023-08-08T07:39:00;100011.25;;;16.76;65.32
77110;BME280;66062;52.464;16.922;2023-08-08T07:41:26;100012.44;;;16.52;66.06
77110;BME280;66062;52.464;16.922;2023-08-08T07:43:52;100020.72;;;16.51;66.40
77110;BME280;66062;52.464;16.922;2023-08-08T07:46:17;100015.34;;;16.51;66.86
77110;BME280;66062;52.464;16.922;2023-08-08T07:48:43;100032.88;;;16.25;67.59
77110;BME280;66062;52.464;16.922;2023-08-08T07:51:08;100027.91;;;16.22;67.56
77110;BME280;66062;52.464;16.922;2023-08-08T07:53:34;100028.72;;;15.87;68.35
77110;BME280;66062;52.464;16.922;2023-08-08T07:55:59;100031.66;;;16.07;67.23
77110;BME280;66062;52.464;16.922;2023-08-08T07:58:25;100024.75;;;16.19;67.04
77110;BME280;66062;52.464;16.922;2023-08-08T08:00:52;100026.53;;;16.12;67.52
77110;BME280;66062;52.464;16.922;2023-08-08T08:03:19;100026.31;;;16.28;67.75
77110;BME280;66062;52.464;16.922;2023-08-08T08:05:44;100030.63;;;16.44;66.84
77110;BME280;66062;52.464;16.922;2023-08-08T08:08:09;100028.66;;;16.16;67.91
77110;BME280;66062;52.464;16.922;2023-08-08T08:10:35;100039.56;;;16.51;66.72
77110;BME280;66062;52.464;16.922;2023-08-08T08:13:00;100027.13;;;16.29;68.00
77110;BME280;66062;52.464;16.922;2023-08-08T08:15:26;100036.00;;;16.44;67.05
77110;BME280;66062;52.464;16.922;2023-08-08T08:17:51;100044.63;;;16.75;65.54
77110;BME280;66062;52.464;16.922;2023-08-08T08:20:17;100029.59;;;16.66;65.28
77110;BME280;66062;52.464;16.922;2023-08-08T08:22:42;100032.34;;;16.94;64.32
77110;BME280;66062;52.464;16.922;2023-08-08T08:25:08;100043.72;;;17.17;63.33
77110;BME280;66062;52.464;16.922;2023-08-08T08:27:37;100020.09;;;17.94;60.54
77110;BME280;66062;52.464;16.922;2023-08-08T08:30:04;100039.84;;;17.95;60.19
77110;BME280;66062;52.464;16.922;2023-08-08T08:32:34;100028.41;;;17.86;60.47
77110;BME280;66062;52.464;16.922;2023-08-08T08:35:01;100023.94;;;18.20;60.09
77110;BME280;66062;52.464;16.922;2023-08-08T08:37:27;100021.75;;;17.89;59.80
77110;BME280;66062;52.464;16.922;2023-08-08T08:39:53;100036.41;;;17.39;61.75
77110;BME280;66062;52.464;16.922;2023-08-08T08:42:18;100039.69;;;17.34;61.95
77110;BME280;66062;52.464;16.922;2023-08-08T08:44:44;100032.25;;;17.36;61.10
77110;BME280;66062;52.464;16.922;2023-08-08T08:47:12;100037.31;;;17.52;60.97
77110;BME280;66062;52.464;16.922;2023-08-08T08:49:39;100027.94;;;17.14;62.57
77110;BME280;66062;52.464;16.922;2023-08-08T08:52:07;100032.38;;;17.56;60.32
77110;BME280;66062;52.464;16.922;2023-08-08T08:54:33;100025.38;;;17.68;59.48
77110;BME280;66062;52.464;16.922;2023-08-08T08:57:06;100021.03;;;18.21;59.26
77110;BME280;66062;52.464;16.922;2023-08-08T08:59:31;100014.09;;;18.93;56.25
77110;BME280;66062;52.464;16.922;2023-08-08T09:01:57;100017.31;;;19.67;54.25
77110;BME280;66062;52.464;16.922;2023-08-08T09:04:23;100013.75;;;19.80;53.19
77110;BME280;66062;52.464;16.922;2023-08-08T09:06:50;100017.41;;;19.14;55.36
77110;BME280;66062;52.464;16.922;2023-08-08T09:09:16;100022.41;;;18.58;56.53
77110;BME280;66062;52.464;16.922;2023-08-08T09:11:44;100028.44;;;18.00;58.42
77110;BME280;66062;52.464;16.922;2023-08-08T09:14:18;100036.25;;;17.81;59.29
77110;BME280;66062;52.464;16.922;2023-08-08T09:16:43;100028.16;;;17.47;60.55
77110;BME280;66062;52.464;16.922;2023-08-08T09:19:09;100045.88;;;17.28;61.31
77110;BME280;66062;52.464;16.922;2023-08-08T09:21:34;100029.47;;;16.95;63.06
77110;BME280;66062;52.464;16.922;2023-08-08T09:24:00;100038.41;;;17.02;63.42
77110;BME280;66062;52.464;16.922;2023-08-08T09:26:25;100038.53;;;16.66;64.64
77110;BME280;66062;52.464;16.922;2023-08-08T09:28:51;100039.34;;;16.88;63.93
77110;BME280;66062;52.464;16.922;2023-08-08T09:31:16;100037.22;;;17.05;63.42
77110;BME280;66062;52.464;16.922;2023-08-08T09:33:42;100034.06;;;17.01;63.73
77110;BME280;66062;52.464;16.922;2023-08-08T09:36:16;100045.13;;;17.06;63.79
77110;BME280;66062;52.464;16.922;2023-08-08T09:38:42;100042.09;;;17.23;62.04
77110;BME280;66062;52.464;16.922;2023-08-08T09:41:08;100041.41;;;17.42;62.00
77110;BME280;66062;52.464;16.922;2023-08-08T09:43:33;100048.72;;;17.82;60.84
77110;BME280;66062;52.464;16.922;2023-08-08T09:45:59;100036.56;;;18.06;58.49
77110;BME280;66062;52.464;16.922;2023-08-08T09:48:32;100033.28;;;18.24;57.99
77110;BME280;66062;52.464;16.922;2023-08-08T09:51:01;100042.78;;;19.00;54.44
77110;BME280;66062;52.464;16.922;2023-08-08T09:53:27;100028.94;;;20.25;50.86
77110;BME280;66062;52.464;16.922;2023-08-08T09:55:56;100023.63;;;20.75;49.69
77110;BME280;66062;52.464;16.922;2023-08-08T09:58:22;100028.81;;;21.51;47.39
77110;BME280;66062;52.464;16.922;2023-08-08T10:00:51;100033.97;;;19.71;51.32
77110;BME280;66062;52.464;16.922;2023-08-08T10:03:18;100021.97;;;19.01;54.39
77110;BME280;66062;52.464;16.922;2023-08-08T10:05:43;100032.38;;;18.77;55.03
77110;BME280;66062;52.464;16.922;2023-08-08T10:08:09;100021.06;;;18.41;55.97
77110;BME280;66062;52.464;16.922;2023-08-08T10:10:35;100016.06;;;19.70;52.43
77110;BME280;66062;52.464;16.922;2023-08-08T10:13:02;100019.59;;;22.66;45.12
77110;BME280;66062;52.464;16.922;2023-08-08T10:15:28;100006.88;;;23.83;41.41
77110;BME280;66062;52.464;16.922;2023-08-08T10:17:56;100005.34;;;23.87;40.29
77110;BME280;66062;52.464;16.922;2023-08-08T10:20:24;100002.81;;;24.99;37.75
77110;BME280;66062;52.464;16.922;2023-08-08T10:22:53;100001.03;;;23.51;39.63
77110;BME280;66062;52.464;16.922;2023-08-08T10:25:23;100016.22;;;21.38;43.54
77110;BME280;66062;52.464;16.922;2023-08-08T10:27:49;100026.22;;;20.32;47.39
77110;BME280;66062;52.464;16.922;2023-08-08T10:30:15;100008.78;;;19.63;49.28
77110;BME280;66062;52.464;16.922;2023-08-08T10:32:45;100019.44;;;19.39;50.12
77110;BME280;66062;52.464;16.922;2023-08-08T10:35:13;100018.72;;;19.76;49.70
77110;BME280;66062;52.464;16.922;2023-08-08T10:37:39;100025.25;;;19.42;51.25
77110;BME280;66062;52.464;16.922;2023-08-08T10:40:06;100017.41;;;18.88;53.75
77110;BME280;66062;52.464;16.922;2023-08-08T10:42:36;100015.50;;;18.56;55.80
77110;BME280;66062;52.464;16.922;2023-08-08T10:45:08;100009.69;;;20.71;49.84
77110;BME280;66062;52.464;16.922;2023-08-08T10:47:35;100011.78;;;20.69;49.06
77110;BME280;66062;52.464;16.922;2023-08-08T10:50:05;99995.06;;;20.10;50.12
77110;BME280;66062;52.464;16.922;2023-08-08T10:52:52;99996.38;;;19.94;50.20
77110;BME280;66062;52.464;16.922;2023-08-08T10:55:20;100004.00;;;19.66;50.97
77110;BME280;66062;52.464;16.922;2023-08-08T10:58:04;100011.56;;;19.17;52.68
77110;BME280;66062;52.464;16.922;2023-08-08T11:00:32;99995.53;;;19.93;50.11
77110;BME280;66062;52.464;16.922;2023-08-08T11:02:59;100012.34;;;19.64;51.35
77110;BME280;66062;52.464;16.922;2023-08-08T11:05:25;99998.03;;;19.95;50.41
77110;BME280;66062;52.464;16.922;2023-08-08T11:07:51;99983.84;;;20.69;47.71
77110;BME280;66062;52.464;16.922;2023-08-08T11:10:17;99985.78;;;21.11;47.10
77110;BME280;66062;52.464;16.922;2023-08-08T11:12:54;99985.34;;;21.14;46.58
77110;BME280;66062;52.464;16.922;2023-08-08T11:15:20;99988.09;;;21.32;45.09
77110;BME280;66062;52.464;16.922;2023-08-08T11:17:45;99986.88;;;21.47;44.27
77110;BME280;66062;52.464;16.922;2023-08-08T11:20:11;99980.75;;;22.06;42.69
77110;BME280;66062;52.464;16.922;2023-08-08T11:22:36;99980.88;;;21.63;43.18
77110;BME280;66062;52.464;16.922;2023-08-08T11:25:01;99979.19;;;22.81;41.54
77110;BME280;66062;52.464;16.922;2023-08-08T11:27:29;99979.03;;;22.65;40.88
77110;BME280;66062;52.464;16.922;2023-08-08T11:29:56;99981.19;;;21.85;43.07
77110;BME280;66062;52.464;16.922;2023-08-08T11:32:21;99969.41;;;22.39;42.82
77110;BME280;66062;52.464;16.922;2023-08-08T11:34:48;99968.31;;;22.28;42.95
77110;BME280;66062;52.464;16.922;2023-08-08T11:37:14;99967.56;;;21.55;45.16
77110;BME280;66062;52.464;16.922;2023-08-08T11:39:40;99974.44;;;20.46;47.87
77110;BME280;66062;52.464;16.922;2023-08-08T11:42:06;99990.78;;;19.89;50.45
77110;BME280;66062;52.464;16.922;2023-08-08T11:44:32;100000.19;;;19.80;50.77
77110;BME280;66062;52.464;16.922;2023-08-08T11:47:02;99992.97;;;20.49;49.06
77110;BME280;66062;52.464;16.922;2023-08-08T11:49:28;100021.81;;;20.69;48.12
77110;BME280;66062;52.464;16.922;2023-08-08T11:51:56;100001.53;;;20.02;50.41
77110;BME280;66062;52.464;16.922;2023-08-08T11:54:21;100021.34;;;19.05;54.68
77110;BME280;66062;52.464;16.922;2023-08-08T11:56:47;100021.88;;;18.22;53.54
77110;BME280;66062;52.464;16.922;2023-08-08T11:59:12;100034.31;;;17.62;55.57
77110;BME280;66062;52.464;16.922;2023-08-08T12:01:38;100030.47;;;17.22;57.75
77110;BME280;66062;52.464;16.922;2023-08-08T12:04:05;100029.97;;;17.05;60.79
77110;BME280;66062;52.464;16.922;2023-08-08T12:06:31;100024.19;;;18.38;58.19
77110;BME280;66062;52.464;16.922;2023-08-08T12:08:57;100026.63;;;20.29;50.73
77110;BME280;66062;52.464;16.922;2023-08-08T12:11:22;100017.25;;;21.98;47.76
77110;BME280;66062;52.464;16.922;2023-08-08T12:13:48;100005.44;;;21.50;47.67
77110;BME280;66062;52.464;16.922;2023-08-08T12:16:14;100010.19;;;21.91;45.97
77110;BME280;66062;52.464;16.922;2023-08-08T12:18:40;99998.22;;;22.70;43.50
77110;BME280;66062;52.464;16.922;2023-08-08T12:21:09;99999.09;;;23.40;42.47
77110;BME280;66062;52.464;16.922;2023-08-08T12:23:36;100005.28;;;23.24;43.35
77110;BME280;66062;52.464;16.922;2023-08-08T12:26:06;99995.09;;;23.94;41.72
77110;BME280;66062;52.464;16.922;2023-08-08T12:28:32;99998.25;;;23.63;42.49
77110;BME280;66062;52.464;16.922;2023-08-08T12:30:58;99997.78;;;22.84;44.04
77110;BME280;66062;52.464;16.922;2023-08-08T12:33:24;100021.47;;;21.08;47.08
77110;BME280;66062;52.464;16.922;2023-08-08T12:35:49;100021.25;;;21.10;49.12
77110;BME280;66062;52.464;16.922;2023-08-08T12:38:15;100024.63;;;20.56;51.02
77110;BME280;66062;52.464;16.922;2023-08-08T12:40:41;100013.75;;;20.87;50.72
77110;BME280;66062;52.464;16.922;2023-08-08T12:43:06;100011.31;;;21.65;48.84